createdAt,value
2019-05-12T00:00:20.748Z,77.70
2019-05-12T00:00:50.690Z,78.44
2019-05-12T00:01:20.746Z,77.60
2019-05-12T00:01:50.691Z,77.75
2019-05-12T00:02:20.745Z,78.39
2019-05-12T00:02:50.697Z,78.08
2019-05-12T00:03:20.743Z,78.21
2019-05-12T00:03:50.694Z,78.48
2019-05-12T00:04:20.748Z,78.93
2019-05-12T00:04:52.146Z,79.27
2019-05-12T00:05:20.744Z,79.16
2019-05-12T00:05:50.689Z,78.64
2019-05-12T00:06:20.746Z,78.99
2019-05-12T00:06:50.692Z,78.98
2019-05-12T00:07:20.757Z,79.29
2019-05-12T00:07:54.076Z,78.51
2019-05-12T00:08:20.754Z,78.71
2019-05-12T00:08:50.688Z,78.79
2019-05-12T00:09:20.744Z,78.96
2019-05-12T00:09:50.696Z,78.74
2019-05-12T00:10:20.751Z,78.78
2019-05-12T00:10:50.692Z,78.91
2019-05-12T00:11:20.746Z,78.65
2019-05-12T00:11:50.691Z,78.64
2019-05-12T00:12:20.750Z,78.19
2019-05-12T00:12:50.692Z,78.23
2019-05-12T00:13:20.746Z,78.44
2019-05-12T00:13:50.700Z,77.87
2019-05-12T00:14:20.751Z,77.72
2019-05-12T00:14:50.693Z,77.92
2019-05-12T00:15:22.137Z,78.10
2019-05-12T00:15:50.692Z,78.23
2019-05-12T00:16:20.747Z,78.27
2019-05-12T00:16:50.695Z,78.67
2019-05-12T00:17:20.749Z,78.75
2019-05-12T00:17:50.691Z,78.86
2019-05-12T00:18:24.129Z,78.64
2019-05-12T00:18:50.692Z,78.78
2019-05-12T00:19:20.750Z,78.81
2019-05-12T00:19:50.697Z,78.46
2019-05-12T00:20:20.751Z,78.05
2019-05-12T00:20:50.701Z,78.08
2019-05-12T00:21:20.745Z,78.55
2019-05-12T00:21:50.686Z,78.52
2019-05-12T00:22:20.747Z,78.53
2019-05-12T00:22:50.686Z,78.04
2019-05-12T00:23:27.595Z,77.76
2019-05-12T00:23:50.695Z,78.18
2019-05-12T00:24:20.762Z,78.71
2019-05-12T00:24:50.691Z,78.57
2019-05-12T00:25:20.767Z,78.42
2019-05-12T00:25:52.142Z,78.11
2019-05-12T00:26:20.754Z,78.39
2019-05-12T00:26:50.699Z,78.35
2019-05-12T00:27:20.762Z,78.42
2019-05-12T00:27:50.700Z,78.63
2019-05-12T00:28:20.756Z,78.72
2019-05-12T00:28:54.112Z,79.02
2019-05-12T00:29:20.755Z,79.20
2019-05-12T00:29:50.707Z,79.17
2019-05-12T00:30:20.761Z,79.23
2019-05-12T00:30:50.696Z,78.94
2019-05-12T00:31:20.755Z,78.48
2019-05-12T00:31:50.696Z,78.93
2019-05-12T00:32:20.754Z,79.40
2019-05-12T00:32:50.692Z,79.08
2019-05-12T00:33:20.761Z,79.10
2019-05-12T00:33:50.703Z,79.01
2019-05-12T00:34:20.760Z,79.22
2019-05-12T00:34:50.698Z,79.44
2019-05-12T00:35:20.757Z,78.38
2019-05-12T00:35:50.694Z,78.34
2019-05-12T00:36:22.185Z,78.65
2019-05-12T00:36:50.697Z,78.51
2019-05-12T00:37:20.757Z,78.50
2019-05-12T00:37:50.699Z,78.65
2019-05-12T00:38:20.756Z,78.93
2019-05-12T00:38:50.701Z,79.38
2019-05-12T00:39:24.170Z,78.99
2019-05-12T00:39:50.701Z,79.09
2019-05-12T00:40:20.767Z,79.20
2019-05-12T00:40:50.701Z,78.24
2019-05-12T00:41:20.763Z,78.16
2019-05-12T00:41:50.697Z,77.82
2019-05-12T00:42:20.759Z,77.70
2019-05-12T00:42:50.703Z,78.05
2019-05-12T00:43:20.765Z,78.05
2019-05-12T00:43:50.707Z,77.86
2019-05-12T00:44:20.763Z,77.96
2019-05-12T00:44:50.711Z,78.15
2019-05-12T00:45:20.766Z,78.39
2019-05-12T00:45:50.701Z,78.61
2019-05-12T00:46:20.761Z,78.51
2019-05-12T00:46:52.235Z,78.72
2019-05-12T00:47:20.754Z,78.87
2019-05-12T00:47:50.701Z,78.58
2019-05-12T00:48:20.764Z,78.82
2019-05-12T00:48:50.701Z,79.30
2019-05-12T00:49:20.773Z,79.65
2019-05-12T00:49:54.227Z,79.44
2019-05-12T00:50:20.757Z,79.52
2019-05-12T00:50:50.697Z,79.43
2019-05-12T00:51:20.761Z,79.25
2019-05-12T00:51:50.701Z,79.01
2019-05-12T00:52:20.756Z,78.80
2019-05-12T00:52:50.696Z,78.84
2019-05-12T00:53:20.759Z,78.80
2019-05-12T00:53:50.699Z,78.84
2019-05-12T00:54:20.761Z,78.81
2019-05-12T00:54:50.714Z,78.90
2019-05-12T00:55:20.753Z,79.01
2019-05-12T00:55:50.711Z,78.85
2019-05-12T00:56:20.757Z,78.65
2019-05-12T00:56:50.705Z,79.33
2019-05-12T00:57:22.291Z,78.77
2019-05-12T00:57:50.707Z,78.79
2019-05-12T00:58:20.763Z,78.59
2019-05-12T00:58:50.711Z,78.12
2019-05-12T00:59:20.771Z,77.92
2019-05-12T00:59:50.703Z,77.70
2019-05-12T01:00:24.289Z,77.83
2019-05-12T01:00:50.707Z,78.32
2019-05-12T01:01:20.764Z,77.95
2019-05-12T01:01:50.701Z,78.09
2019-05-12T01:02:20.759Z,78.31
2019-05-12T01:02:50.701Z,78.18
2019-05-12T01:03:20.767Z,78.37
2019-05-12T01:03:50.703Z,78.34
2019-05-12T01:04:20.769Z,78.03
2019-05-12T01:04:50.705Z,77.84
2019-05-12T01:05:20.767Z,77.22
2019-05-12T01:05:50.701Z,77.34
2019-05-12T01:06:20.768Z,77.39
2019-05-12T01:06:52.702Z,76.92
2019-05-12T01:07:20.759Z,77.10
2019-05-12T01:07:52.135Z,77.36
2019-05-12T01:08:20.764Z,76.67
2019-05-12T01:08:50.703Z,76.89
2019-05-12T01:09:20.763Z,77.27
2019-05-12T01:09:50.707Z,76.92
2019-05-12T01:10:20.770Z,77.06
2019-05-12T01:10:54.127Z,77.18
2019-05-12T01:11:20.765Z,77.65
2019-05-12T01:11:50.711Z,78.32
2019-05-12T01:12:20.760Z,78.54
2019-05-12T01:12:50.706Z,78.64
2019-05-12T01:13:20.771Z,78.34
2019-05-12T01:13:50.719Z,77.02
2019-05-12T01:14:20.769Z,77.12
2019-05-12T01:14:50.708Z,77.20
2019-05-12T01:15:20.764Z,76.98
2019-05-12T01:15:50.708Z,77.13
2019-05-12T01:16:20.767Z,77.31
2019-05-12T01:16:50.707Z,77.15
2019-05-12T01:17:20.767Z,77.61
2019-05-12T01:17:50.709Z,77.78
2019-05-12T01:18:22.207Z,77.73
2019-05-12T01:18:50.709Z,77.64
2019-05-12T01:19:20.775Z,77.71
2019-05-12T01:19:50.706Z,77.32
2019-05-12T01:20:20.773Z,77.22
2019-05-12T01:20:50.715Z,76.89
2019-05-12T01:21:24.183Z,77.17
2019-05-12T01:21:50.705Z,77.06
2019-05-12T01:22:20.767Z,77.14
2019-05-12T01:22:51.709Z,77.36
2019-05-12T01:23:23.572Z,77.60
2019-05-12T01:23:56.651Z,77.76
2019-05-12T01:24:20.765Z,77.50
2019-05-12T01:24:50.706Z,77.45
2019-05-12T01:25:20.769Z,77.27
2019-05-12T01:25:51.771Z,77.19
2019-05-12T01:26:20.768Z,77.24
2019-05-12T01:26:50.715Z,77.39
2019-05-12T01:27:20.765Z,77.46
2019-05-12T01:27:50.714Z,77.75
2019-05-12T01:28:20.767Z,77.54
2019-05-12T01:28:52.118Z,77.20
2019-05-12T01:29:20.777Z,76.65
2019-05-12T01:29:50.714Z,76.78
2019-05-12T01:30:20.767Z,76.73
2019-05-12T01:30:50.712Z,76.11
2019-05-12T01:31:20.767Z,76.31
2019-05-12T01:31:54.089Z,76.93
2019-05-12T01:32:20.767Z,77.02
2019-05-12T01:32:50.722Z,77.33
2019-05-12T01:33:20.774Z,77.50
2019-05-12T01:33:50.705Z,77.30
2019-05-12T01:34:20.774Z,77.33
2019-05-12T01:34:50.713Z,77.56
2019-05-12T01:35:20.769Z,77.57
2019-05-12T01:35:50.709Z,77.71
2019-05-12T01:36:20.779Z,77.45
2019-05-12T01:36:50.725Z,77.34
2019-05-12T01:37:20.781Z,77.48
2019-05-12T01:37:50.715Z,77.80
2019-05-12T01:38:20.767Z,77.57
2019-05-12T01:38:50.708Z,77.62
2019-05-12T01:39:22.091Z,77.60
2019-05-12T01:39:50.710Z,77.71
2019-05-12T01:40:20.771Z,77.76
2019-05-12T01:40:50.721Z,78.17
2019-05-12T01:41:20.774Z,78.40
2019-05-12T01:41:50.714Z,78.05
2019-05-12T01:42:24.974Z,77.63
2019-05-12T01:42:52.241Z,77.67
2019-05-12T01:43:21.777Z,77.79
2019-05-12T01:43:50.723Z,77.27
2019-05-12T01:44:20.791Z,77.33
2019-05-12T01:44:50.714Z,77.55
2019-05-12T01:45:20.782Z,77.69
2019-05-12T01:45:50.727Z,77.69
2019-05-12T01:46:20.778Z,77.72
2019-05-12T01:46:50.722Z,77.78
2019-05-12T01:47:20.774Z,78.14
2019-05-12T01:47:50.719Z,78.69
2019-05-12T01:48:20.791Z,78.44
2019-05-12T01:48:50.714Z,78.40
2019-05-12T01:49:20.777Z,78.31
2019-05-12T01:49:52.146Z,78.37
2019-05-12T01:50:20.772Z,78.49
2019-05-12T01:50:50.711Z,78.16
2019-05-12T01:51:20.773Z,77.98
2019-05-12T01:51:50.714Z,77.89
2019-05-12T01:52:20.769Z,78.21
2019-05-12T01:52:54.136Z,78.23
2019-05-12T01:53:20.774Z,77.67
2019-05-12T01:53:50.727Z,77.40
2019-05-12T01:54:20.773Z,77.72
2019-05-12T01:54:50.713Z,77.98
2019-05-12T01:55:20.774Z,78.07
2019-05-12T01:55:50.724Z,77.94
2019-05-12T01:56:20.772Z,78.09
2019-05-12T01:56:50.711Z,77.96
2019-05-12T01:57:20.782Z,78.02
2019-05-12T01:57:50.720Z,78.15
2019-05-12T01:58:20.774Z,78.38
2019-05-12T01:58:50.718Z,78.21
2019-05-12T01:59:20.776Z,77.92
2019-05-12T01:59:50.718Z,77.32
2019-05-12T02:00:22.136Z,77.36
2019-05-12T02:00:50.722Z,77.78
2019-05-12T02:01:20.780Z,78.20
2019-05-12T02:01:50.716Z,78.16
2019-05-12T02:02:20.780Z,78.57
2019-05-12T02:02:50.725Z,78.16
2019-05-12T02:03:24.116Z,78.15
2019-05-12T02:03:50.716Z,78.14
2019-05-12T02:04:20.775Z,78.08
2019-05-12T02:04:50.718Z,78.29
2019-05-12T02:05:20.786Z,78.58
2019-05-12T02:05:50.720Z,78.94
2019-05-12T02:06:20.781Z,79.11
2019-05-12T02:06:50.728Z,78.81
2019-05-12T02:07:20.786Z,78.86
2019-05-12T02:07:50.720Z,78.60
2019-05-12T02:08:20.780Z,78.68
2019-05-12T02:08:50.716Z,78.71
2019-05-12T02:09:20.774Z,78.38
2019-05-12T02:09:50.718Z,78.16
2019-05-12T02:10:20.778Z,77.75
2019-05-12T02:10:52.194Z,77.81
2019-05-12T02:11:20.771Z,77.96
2019-05-12T02:11:50.715Z,77.92
2019-05-12T02:12:20.778Z,77.76
2019-05-12T02:12:50.720Z,77.98
2019-05-12T02:13:20.786Z,78.54
2019-05-12T02:13:54.168Z,78.61
2019-05-12T02:14:20.776Z,78.87
2019-05-12T02:14:50.721Z,78.78
2019-05-12T02:15:20.778Z,78.84
2019-05-12T02:15:50.882Z,78.82
2019-05-12T02:16:20.781Z,78.57
2019-05-12T02:16:50.724Z,78.43
2019-05-12T02:17:20.784Z,78.12
2019-05-12T02:17:50.727Z,77.98
2019-05-12T02:18:20.782Z,78.14
2019-05-12T02:18:50.720Z,78.39
2019-05-12T02:19:20.784Z,78.67
2019-05-12T02:19:50.724Z,78.46
2019-05-12T02:20:20.783Z,78.14
2019-05-12T02:20:50.720Z,78.05
2019-05-12T02:21:22.248Z,78.30
2019-05-12T02:21:50.720Z,78.45
2019-05-12T02:22:20.792Z,78.89
2019-05-12T02:22:50.725Z,78.86
2019-05-12T02:23:21.010Z,78.79
2019-05-12T02:23:50.719Z,79.14
2019-05-12T02:24:30.618Z,79.11
2019-05-12T02:24:50.713Z,78.89
2019-05-12T02:25:20.788Z,78.49
2019-05-12T02:25:50.717Z,78.70
2019-05-12T02:26:20.828Z,78.97
2019-05-12T02:26:50.728Z,79.13
2019-05-12T02:27:20.780Z,79.37
2019-05-12T02:27:50.718Z,79.34
2019-05-12T02:28:20.786Z,78.78
2019-05-12T02:28:50.722Z,78.77
2019-05-12T02:29:20.783Z,78.87
2019-05-12T02:29:50.721Z,79.20
2019-05-12T02:30:21.824Z,79.23
2019-05-12T02:30:50.733Z,78.06
2019-05-12T02:31:21.941Z,77.85
2019-05-12T02:31:52.118Z,77.80
2019-05-12T02:32:23.707Z,78.08
2019-05-12T02:32:58.971Z,78.43
2019-05-12T02:33:20.786Z,78.48
2019-05-12T02:33:50.727Z,78.53
2019-05-12T02:34:20.788Z,78.69
2019-05-12T02:34:55.128Z,78.17
2019-05-12T02:35:20.786Z,78.40
2019-05-12T02:35:50.724Z,78.50
2019-05-12T02:36:20.790Z,78.59
2019-05-12T02:36:50.738Z,78.82
2019-05-12T02:37:20.796Z,78.89
2019-05-12T02:37:50.723Z,79.16
2019-05-12T02:38:20.791Z,79.24
2019-05-12T02:38:50.725Z,79.34
2019-05-12T02:39:20.798Z,79.49
2019-05-12T02:39:50.726Z,78.81
2019-05-12T02:40:20.790Z,78.63
2019-05-12T02:40:55.356Z,78.64
2019-05-12T02:41:20.783Z,78.43
2019-05-12T02:41:50.752Z,78.34
2019-05-12T02:42:25.169Z,78.77
2019-05-12T02:42:50.883Z,79.04
2019-05-12T02:43:20.786Z,78.97
2019-05-12T02:43:50.747Z,78.66
2019-05-12T02:44:20.791Z,78.41
2019-05-12T02:44:50.724Z,78.48
2019-05-12T02:45:30.058Z,78.94
2019-05-12T02:45:50.726Z,78.37
2019-05-12T02:46:20.784Z,78.34
2019-05-12T02:46:50.730Z,78.46
2019-05-12T02:47:23.799Z,78.74
2019-05-12T02:47:50.730Z,78.65
2019-05-12T02:48:20.790Z,78.65
2019-05-12T02:48:54.266Z,78.92
2019-05-12T02:49:20.786Z,79.09
2019-05-12T02:49:50.729Z,78.36
2019-05-12T02:50:20.791Z,78.25
2019-05-12T02:50:50.725Z,78.30
2019-05-12T02:51:20.787Z,78.17
2019-05-12T02:51:50.725Z,78.38
2019-05-12T02:52:20.793Z,78.42
2019-05-12T02:52:54.549Z,78.58
2019-05-12T02:53:20.793Z,78.68
2019-05-12T02:53:50.736Z,78.78
2019-05-12T02:54:20.800Z,78.94
2019-05-12T02:54:59.526Z,79.06
2019-05-12T02:55:20.926Z,79.29
2019-05-12T02:55:55.079Z,78.91
2019-05-12T02:56:20.789Z,78.81
2019-05-12T02:56:50.735Z,78.63
2019-05-12T02:57:20.812Z,78.76
2019-05-12T02:57:50.729Z,78.82
2019-05-12T02:58:20.782Z,78.85
2019-05-12T02:58:50.742Z,78.92
2019-05-12T02:59:20.807Z,79.09
2019-05-12T02:59:50.729Z,79.10
2019-05-12T03:00:23.847Z,79.37
2019-05-12T03:00:50.735Z,79.51
2019-05-12T03:01:24.033Z,79.41
2019-05-12T03:01:50.731Z,79.50
2019-05-12T03:02:20.789Z,79.78
2019-05-12T03:02:50.730Z,80.28
2019-05-12T03:03:24.753Z,80.47
2019-05-12T03:03:50.740Z,80.14
2019-05-12T03:04:20.793Z,79.94
2019-05-12T03:04:50.739Z,79.87
2019-05-12T03:05:20.792Z,79.74
2019-05-12T03:05:50.733Z,79.46
2019-05-12T03:06:30.046Z,79.39
2019-05-12T03:06:50.744Z,79.51
2019-05-12T03:07:20.794Z,79.42
2019-05-12T03:07:50.732Z,79.41
2019-05-12T03:08:20.804Z,79.28
2019-05-12T03:08:50.734Z,79.26
2019-05-12T03:09:24.012Z,79.41
2019-05-12T03:09:50.733Z,79.17
2019-05-12T03:10:20.797Z,79.10
2019-05-12T03:10:50.737Z,79.17
2019-05-12T03:11:20.798Z,79.26
2019-05-12T03:11:50.730Z,79.46
2019-05-12T03:12:20.797Z,79.59
2019-05-12T03:12:50.769Z,79.24
2019-05-12T03:13:20.794Z,78.85
2019-05-12T03:13:54.598Z,78.83
2019-05-12T03:14:20.794Z,78.76
2019-05-12T03:14:50.734Z,79.13
2019-05-12T03:15:20.795Z,79.42
2019-05-12T03:15:50.734Z,79.63
2019-05-12T03:16:20.805Z,79.78
2019-05-12T03:16:54.202Z,79.76
2019-05-12T03:17:20.795Z,79.47
2019-05-12T03:17:50.736Z,79.23
2019-05-12T03:18:20.816Z,79.26
2019-05-12T03:18:50.743Z,79.54
2019-05-12T03:19:20.792Z,79.33
2019-05-12T03:19:50.738Z,79.50
2019-05-12T03:20:20.792Z,79.67
2019-05-12T03:20:50.740Z,79.90
2019-05-12T03:21:20.791Z,79.85
2019-05-12T03:21:50.740Z,79.87
2019-05-12T03:22:20.794Z,79.71
2019-05-12T03:22:50.741Z,79.78
2019-05-12T03:23:20.800Z,79.74
2019-05-12T03:23:50.738Z,79.46
2019-05-12T03:24:24.882Z,79.51
2019-05-12T03:25:07.604Z,79.39
2019-05-12T03:25:29.974Z,79.50
2019-05-12T03:25:50.733Z,79.56
2019-05-12T03:26:20.793Z,79.67
2019-05-12T03:26:50.731Z,79.78
2019-05-12T03:27:30.229Z,79.96
2019-05-12T03:27:50.737Z,80.06
2019-05-12T03:28:20.879Z,79.96
2019-05-12T03:28:50.735Z,79.77
2019-05-12T03:29:20.806Z,79.98
2019-05-12T03:29:50.734Z,79.89
2019-05-12T03:30:20.800Z,79.56
2019-05-12T03:30:50.772Z,79.68
2019-05-12T03:31:29.463Z,79.91
2019-05-12T03:31:50.738Z,79.68
2019-05-12T03:32:20.793Z,79.39
2019-05-12T03:32:50.765Z,79.51
2019-05-12T03:33:59.457Z,79.60
2019-05-12T03:34:21.815Z,79.67
2019-05-12T03:34:57.080Z,79.33
2019-05-12T03:35:20.796Z,79.56
2019-05-12T03:36:00.426Z,79.59
2019-05-12T03:36:20.801Z,79.62
2019-05-12T03:36:58.549Z,79.48
2019-05-12T03:37:20.866Z,79.43
2019-05-12T03:37:55.093Z,79.43
2019-05-12T03:38:20.802Z,79.53
2019-05-12T03:38:50.737Z,79.47
2019-05-12T03:39:20.806Z,79.52
2019-05-12T03:39:50.740Z,79.57
2019-05-12T03:40:20.803Z,79.46
2019-05-12T03:40:50.738Z,79.39
2019-05-12T03:41:20.808Z,79.39
2019-05-12T03:41:50.738Z,79.46
2019-05-12T03:42:20.798Z,79.45
2019-05-12T03:42:50.733Z,79.17
2019-05-12T03:43:20.796Z,79.58
2019-05-12T03:43:50.756Z,79.47
2019-05-12T03:44:20.799Z,79.40
2019-05-12T03:44:50.741Z,79.38
2019-05-12T03:45:24.785Z,79.34
2019-05-12T03:45:50.744Z,79.31
2019-05-12T03:46:20.798Z,79.51
2019-05-12T03:46:50.742Z,79.30
2019-05-12T03:47:20.800Z,79.42
2019-05-12T03:47:50.745Z,79.47
2019-05-12T03:48:30.084Z,79.07
2019-05-12T03:48:50.746Z,79.24
2019-05-12T03:49:20.820Z,79.47
2019-05-12T03:49:50.752Z,79.79
2019-05-12T03:50:24.042Z,80.00
2019-05-12T03:50:50.742Z,79.65
2019-05-12T03:51:20.803Z,79.66
2019-05-12T03:51:54.054Z,78.71
2019-05-12T03:52:23.951Z,78.87
2019-05-12T03:52:50.745Z,79.13
2019-05-12T03:53:24.375Z,79.53
2019-05-12T03:53:50.737Z,79.48
2019-05-12T03:54:23.988Z,79.14
2019-05-12T03:54:50.743Z,79.04
2019-05-12T03:55:31.537Z,79.08
2019-05-12T03:56:30.274Z,79.29
2019-05-12T03:57:00.331Z,79.32
2019-05-12T03:57:30.260Z,79.25
2019-05-12T03:58:00.326Z,79.22
2019-05-12T03:59:04.225Z,79.04
2019-05-12T03:59:30.261Z,79.17
2019-05-12T04:00:05.128Z,79.01
2019-05-12T04:00:30.261Z,78.95
2019-05-12T04:01:30.272Z,79.22
2019-05-12T04:02:09.119Z,79.24
2019-05-12T04:02:30.267Z,78.73
2019-05-12T04:03:00.328Z,78.93
2019-05-12T04:04:00.326Z,79.44
2019-05-12T04:04:30.287Z,79.35
2019-05-12T04:05:00.329Z,78.98
2019-05-12T04:05:30.280Z,78.97
2019-05-12T04:06:30.269Z,78.88
2019-05-12T04:07:00.342Z,78.97
2019-05-12T04:07:30.279Z,79.20
2019-05-12T04:08:00.331Z,78.91
2019-05-12T04:09:00.329Z,78.63
2019-05-12T04:09:34.567Z,78.81
2019-05-12T04:10:00.331Z,78.42
2019-05-12T04:10:35.281Z,78.32
2019-05-12T04:11:30.271Z,78.83
2019-05-12T04:12:00.334Z,78.90
2019-05-12T04:12:39.086Z,79.18
2019-05-12T04:13:00.345Z,78.93
2019-05-12T04:14:00.333Z,78.41
2019-05-12T04:14:30.267Z,78.71
2019-05-12T04:15:00.335Z,78.34
2019-05-12T04:15:30.266Z,78.43
2019-05-12T04:16:30.267Z,78.81
2019-05-12T04:17:00.331Z,78.76
2019-05-12T04:17:30.271Z,78.49
2019-05-12T04:18:00.331Z,78.29
2019-05-12T04:19:00.332Z,78.48
2019-05-12T04:19:30.273Z,78.54
2019-05-12T04:20:00.331Z,78.46
2019-05-12T04:20:30.276Z,78.82
2019-05-12T04:21:05.432Z,78.57
2019-05-12T04:21:30.276Z,78.43
2019-05-12T04:22:00.329Z,78.46
2019-05-12T04:22:30.309Z,78.22
2019-05-12T04:23:09.094Z,78.37
2019-05-12T04:24:00.337Z,78.04
2019-05-12T04:24:30.270Z,78.16
2019-05-12T04:25:00.346Z,78.37
2019-05-12T04:25:47.552Z,78.33
2019-05-12T04:26:10.737Z,78.29
2019-05-12T04:26:30.272Z,78.46
2019-05-12T04:27:00.333Z,78.26
2019-05-12T04:27:30.270Z,78.46
2019-05-12T04:28:00.340Z,78.68
2019-05-12T04:29:00.334Z,78.59
2019-05-12T04:29:30.274Z,78.57
2019-05-12T04:30:00.348Z,78.52
2019-05-12T04:30:31.272Z,78.55
2019-05-12T04:31:34.739Z,78.27
2019-05-12T04:32:00.332Z,78.14
2019-05-12T04:32:30.277Z,78.42
2019-05-12T04:33:00.337Z,78.42
2019-05-12T04:33:39.132Z,78.18
2019-05-12T04:34:00.339Z,78.41
2019-05-12T04:34:30.273Z,78.38
2019-05-12T04:35:00.336Z,78.30
2019-05-12T04:35:30.285Z,78.22
2019-05-12T04:36:30.277Z,78.37
2019-05-12T04:37:00.333Z,78.27
2019-05-12T04:37:30.272Z,78.64
2019-05-12T04:38:00.341Z,78.92
2019-05-12T04:39:00.338Z,78.63
2019-05-12T04:39:30.279Z,78.77
2019-05-12T04:40:00.332Z,78.82
2019-05-12T04:40:30.304Z,78.79
2019-05-12T04:41:30.277Z,78.91
2019-05-12T04:42:05.236Z,78.70
2019-05-12T04:42:30.297Z,78.39
2019-05-12T04:43:00.340Z,78.39
2019-05-12T04:43:30.275Z,78.38
2019-05-12T04:44:09.055Z,78.28
2019-05-12T04:44:30.290Z,78.34
2019-05-12T04:45:00.328Z,78.31
2019-05-12T04:45:30.272Z,78.57
2019-05-12T04:46:30.281Z,78.37
2019-05-12T04:47:00.342Z,78.51
2019-05-12T04:47:30.277Z,78.31
2019-05-12T04:48:00.333Z,78.42
2019-05-12T04:49:00.345Z,78.36
2019-05-12T04:49:30.275Z,78.49
2019-05-12T04:50:00.338Z,78.64
2019-05-12T04:50:30.283Z,78.77
2019-05-12T04:51:34.527Z,78.80
2019-05-12T04:52:00.343Z,78.76
2019-05-12T04:52:35.118Z,78.85
2019-05-12T04:53:00.352Z,78.58
2019-05-12T04:54:00.337Z,78.79
2019-05-12T04:54:39.087Z,78.86
2019-05-12T04:55:00.335Z,79.12
2019-05-12T04:55:30.280Z,79.13
2019-05-12T04:56:10.443Z,79.12
2019-05-12T04:56:30.292Z,78.99
2019-05-12T04:57:00.347Z,79.07
2019-05-12T04:57:30.277Z,79.26
2019-05-12T04:58:00.342Z,79.30
2019-05-12T04:59:00.339Z,78.90
2019-05-12T04:59:30.278Z,78.90
2019-05-12T05:00:00.342Z,78.84
2019-05-12T05:00:30.283Z,78.86
2019-05-12T05:01:30.285Z,79.15
2019-05-12T05:02:00.339Z,79.25
2019-05-12T05:02:30.278Z,78.84
2019-05-12T05:03:07.078Z,78.93
2019-05-12T05:04:00.343Z,78.84
2019-05-12T05:04:30.290Z,78.79
2019-05-12T05:05:09.131Z,78.94
2019-05-12T05:05:30.279Z,78.88
2019-05-12T05:06:30.304Z,78.86
2019-05-12T05:07:00.340Z,78.70
2019-05-12T05:07:30.283Z,78.86
2019-05-12T05:08:00.347Z,78.96
2019-05-12T05:09:00.346Z,79.07
2019-05-12T05:09:30.293Z,79.09
2019-05-12T05:10:00.357Z,78.99
2019-05-12T05:10:30.285Z,78.84
2019-05-12T05:11:30.278Z,79.01
2019-05-12T05:12:00.342Z,79.21
2019-05-12T05:12:31.290Z,78.86
2019-05-12T05:13:00.350Z,79.20
2019-05-12T05:13:36.714Z,79.44
2019-05-12T05:14:00.345Z,79.13
2019-05-12T05:14:30.293Z,78.89
2019-05-12T05:15:00.351Z,79.05
2019-05-12T05:15:39.196Z,79.21
2019-05-12T05:16:30.290Z,79.07
2019-05-12T05:17:00.343Z,79.14
2019-05-12T05:17:30.284Z,79.17
2019-05-12T05:18:00.358Z,79.27
2019-05-12T05:19:00.347Z,79.36
2019-05-12T05:19:30.282Z,79.45
2019-05-12T05:20:00.343Z,79.15
2019-05-12T05:20:30.350Z,79.22
2019-05-12T05:21:30.298Z,79.15
2019-05-12T05:22:00.396Z,79.30
2019-05-12T05:22:30.302Z,79.10
2019-05-12T05:23:00.345Z,79.04
2019-05-12T05:24:05.078Z,79.19
2019-05-12T05:24:30.283Z,79.28
2019-05-12T05:25:00.350Z,79.19
2019-05-12T05:25:30.288Z,79.15
2019-05-12T05:26:04.138Z,78.86
2019-05-12T05:26:30.292Z,79.10
2019-05-12T05:27:00.342Z,79.01
2019-05-12T05:27:30.284Z,79.08
2019-05-12T05:28:00.348Z,79.28
2019-05-12T05:29:00.345Z,79.69
2019-05-12T05:29:30.295Z,79.71
2019-05-12T05:30:00.358Z,79.48
2019-05-12T05:30:30.284Z,79.50
2019-05-12T05:31:30.280Z,79.24
2019-05-12T05:32:00.344Z,79.43
2019-05-12T05:32:30.293Z,79.42
2019-05-12T05:33:00.354Z,79.42
2019-05-12T05:33:31.289Z,79.22
2019-05-12T05:34:00.342Z,78.90
2019-05-12T05:34:34.240Z,79.19
2019-05-12T05:35:00.349Z,79.16
2019-05-12T05:35:34.912Z,79.11
2019-05-12T05:36:39.084Z,79.17
2019-05-12T05:37:02.353Z,79.16
2019-05-12T05:37:36.729Z,79.07
2019-05-12T05:38:00.360Z,79.14
2019-05-12T05:39:04.276Z,78.78
2019-05-12T05:39:30.286Z,78.93
2019-05-12T05:40:00.346Z,78.79
2019-05-12T05:40:31.292Z,78.75
2019-05-12T05:41:05.694Z,78.96
2019-05-12T05:41:30.290Z,78.86
2019-05-12T05:42:00.347Z,78.67
2019-05-12T05:42:33.290Z,78.43
2019-05-12T05:43:03.460Z,78.30
2019-05-12T05:44:00.346Z,78.47
2019-05-12T05:44:34.546Z,77.86
2019-05-12T05:45:06.626Z,78.14
2019-05-12T05:45:30.291Z,78.20
2019-05-12T05:46:07.565Z,78.28
2019-05-12T05:46:30.297Z,78.39
2019-05-12T05:47:09.093Z,78.14
2019-05-12T05:47:30.284Z,78.26
2019-05-12T05:48:09.645Z,78.01
2019-05-12T05:48:35.051Z,77.82
2019-05-12T05:49:00.351Z,77.89
2019-05-12T05:49:30.329Z,78.02
2019-05-12T05:50:00.366Z,77.81
2019-05-12T05:50:30.286Z,77.66
2019-05-12T05:51:05.523Z,77.24
2019-05-12T05:51:30.288Z,77.21
2019-05-12T05:52:00.349Z,77.45
2019-05-12T05:52:34.043Z,77.47
2019-05-12T05:53:00.377Z,77.36
2019-05-12T05:54:00.348Z,77.48
2019-05-12T05:54:35.780Z,76.83
2019-05-12T05:55:02.026Z,76.69
2019-05-12T05:55:34.197Z,76.51
2019-05-12T05:56:01.351Z,76.61
2019-05-12T05:56:41.738Z,76.93
2019-05-12T05:57:03.718Z,76.87
2019-05-12T05:57:34.107Z,76.33
2019-05-12T05:58:05.614Z,76.43
2019-05-12T05:59:00.355Z,76.37
2019-05-12T05:59:36.476Z,76.93
2019-05-12T06:00:00.357Z,76.48
2019-05-12T06:00:30.291Z,76.43
2019-05-12T06:01:06.022Z,76.19
2019-05-12T06:01:30.290Z,75.85
2019-05-12T06:02:00.364Z,75.80
2019-05-12T06:02:39.627Z,75.80
2019-05-12T06:03:00.361Z,75.68
2019-05-12T06:04:04.176Z,76.26
2019-05-12T06:04:30.293Z,76.18
2019-05-12T06:05:00.350Z,76.21
2019-05-12T06:05:31.293Z,75.49
2019-05-12T06:06:12.131Z,75.80
2019-05-12T06:07:00.360Z,75.72
2019-05-12T06:07:35.691Z,75.40
2019-05-12T06:08:09.742Z,75.42
2019-05-12T06:09:00.373Z,75.61
2019-05-12T06:09:30.296Z,75.68
2019-05-12T06:10:00.357Z,75.82
2019-05-12T06:10:35.922Z,75.57
2019-05-12T06:11:30.310Z,75.47
2019-05-12T06:12:04.987Z,75.41
2019-05-12T06:12:30.385Z,75.71
2019-05-12T06:13:00.359Z,75.67
2019-05-12T06:13:34.454Z,75.56
2019-05-12T06:14:10.757Z,75.74
2019-05-12T06:14:30.295Z,75.33
2019-05-12T06:15:00.360Z,75.56
2019-05-12T06:15:35.516Z,75.26
2019-05-12T06:16:34.031Z,75.16
2019-05-12T06:17:00.356Z,75.26
2019-05-12T06:17:30.303Z,75.24
2019-05-12T06:18:00.361Z,74.85
2019-05-12T06:18:34.109Z,74.93
2019-05-12T06:19:00.354Z,74.73
2019-05-12T06:19:30.299Z,74.60
2019-05-12T06:20:00.364Z,74.18
2019-05-12T06:20:30.295Z,73.78
2019-05-12T06:21:34.511Z,74.37
2019-05-12T06:22:00.353Z,73.99
2019-05-12T06:22:30.297Z,74.50
2019-05-12T06:23:00.355Z,74.65
2019-05-12T06:23:34.716Z,74.20
2019-05-12T06:24:00.369Z,73.95
2019-05-12T06:24:30.296Z,73.91
2019-05-12T06:25:00.359Z,73.40
2019-05-12T06:25:40.934Z,74.06
2019-05-12T06:26:34.919Z,74.10
2019-05-12T06:27:15.061Z,74.13
2019-05-12T06:27:33.466Z,74.46
2019-05-12T06:28:04.190Z,73.86
2019-05-12T06:28:37.004Z,73.55
2019-05-12T06:29:30.309Z,72.84
2019-05-12T06:30:06.230Z,72.69
2019-05-12T06:30:30.306Z,72.99
2019-05-12T06:31:00.363Z,72.71
2019-05-12T06:31:30.301Z,73.03
2019-05-12T06:32:06.045Z,73.19
2019-05-12T06:32:30.293Z,72.67
2019-05-12T06:33:00.370Z,73.05
2019-05-12T06:33:36.047Z,73.92
2019-05-12T06:34:14.996Z,73.65
2019-05-12T06:35:09.121Z,73.34
2019-05-12T06:35:42.894Z,73.70
2019-05-12T06:36:13.561Z,73.22
2019-05-12T06:36:39.177Z,73.42
2019-05-12T06:37:12.190Z,74.02
2019-05-12T06:37:39.182Z,73.77
2019-05-12T06:38:09.129Z,73.48
2019-05-12T06:38:43.288Z,73.07
2019-05-12T06:39:16.332Z,72.80
2019-05-12T06:39:39.187Z,72.82
2019-05-12T06:40:09.127Z,72.41
2019-05-12T06:40:45.563Z,71.73
2019-05-12T06:41:12.319Z,71.74
2019-05-12T06:41:39.184Z,71.67
2019-05-12T06:42:14.006Z,71.80
2019-05-12T06:42:48.293Z,70.73
2019-05-12T06:43:09.130Z,71.12
2019-05-12T06:43:45.364Z,71.24
2019-05-12T06:44:14.714Z,71.03
2019-05-12T06:44:39.187Z,71.54
2019-05-12T06:45:09.134Z,71.40
2019-05-12T06:45:43.178Z,71.91
2019-05-12T06:46:11.715Z,71.78
2019-05-12T06:46:39.189Z,72.13
2019-05-12T06:47:09.137Z,72.50
2019-05-12T06:47:45.129Z,71.77
2019-05-12T06:48:09.125Z,71.81
2019-05-12T06:48:43.074Z,72.59
2019-05-12T06:49:13.358Z,72.00
2019-05-12T06:49:39.188Z,71.36
2019-05-12T06:50:09.177Z,71.04